createdAt,value
2022-11-14T00:01:13.068Z,25.33
2022-11-14T00:03:39.405Z,25.48
2022-11-14T00:06:06.806Z,24.38
2022-11-14T00:08:33.287Z,23.67
2022-11-14T00:10:59.623Z,26.92
2022-11-14T00:13:25.844Z,25.52
2022-11-14T00:15:55.383Z,26.48
2022-11-14T00:18:22.053Z,24.17
2022-11-14T00:20:48.784Z,24.50
2022-11-14T00:23:15.224Z,23.75
2022-11-14T00:25:41.460Z,26.17
2022-11-14T00:28:08.697Z,24.08
2022-11-14T00:30:34.979Z,23.92
2022-11-14T00:33:01.203Z,23.63
2022-11-14T00:35:27.449Z,23.42
2022-11-14T00:37:53.840Z,24.42
2022-11-14T00:40:20.113Z,24.27
2022-11-14T00:42:46.345Z,23.50
2022-11-14T00:45:12.574Z,24.48
2022-11-14T00:47:38.807Z,23.02
2022-11-14T00:50:05.258Z,23.55
2022-11-14T00:52:31.466Z,23.15
2022-11-14T00:54:57.714Z,23.45
2022-11-14T00:57:23.985Z,23.42
2022-11-14T00:59:50.295Z,23.58
2022-11-14T01:02:16.667Z,22.83
2022-11-14T01:04:42.899Z,22.13
2022-11-14T01:07:09.200Z,21.95
2022-11-14T01:09:35.565Z,22.67
2022-11-14T01:12:01.813Z,22.42
2022-11-14T01:14:28.254Z,21.02
2022-11-14T01:16:54.545Z,21.83
2022-11-14T01:19:20.820Z,22.20
2022-11-14T01:21:47.066Z,23.15
2022-11-14T01:24:13.327Z,22.50
2022-11-14T01:26:39.580Z,23.67
2022-11-14T01:29:05.842Z,21.88
2022-11-14T01:31:32.122Z,26.00
2022-11-14T01:33:58.477Z,22.20
2022-11-14T01:36:24.771Z,21.70
2022-11-14T01:38:54.165Z,23.85
2022-11-14T01:41:20.880Z,21.58
2022-11-14T01:43:47.564Z,22.38
2022-11-14T01:46:26.164Z,21.50
2022-11-14T01:48:55.360Z,27.30
2022-11-14T01:51:25.056Z,23.75
2022-11-14T01:53:52.890Z,23.13
2022-11-14T01:56:20.667Z,23.13
2022-11-14T01:58:49.748Z,21.48
2022-11-14T02:01:16.036Z,23.02
2022-11-14T02:03:44.038Z,21.33
2022-11-14T02:06:13.190Z,23.35
2022-11-14T02:08:39.762Z,22.27
2022-11-14T02:11:06.024Z,22.15
2022-11-14T02:13:32.276Z,21.92
2022-11-14T02:15:58.764Z,20.77
2022-11-14T02:18:25.058Z,22.13
2022-11-14T02:20:51.295Z,21.42
2022-11-14T02:23:28.066Z,21.10
2022-11-14T02:25:54.466Z,22.08
2022-11-14T02:28:21.645Z,20.75
2022-11-14T02:30:48.236Z,21.55
2022-11-14T02:33:14.656Z,20.75
2022-11-14T02:35:41.284Z,20.85
2022-11-14T02:38:07.557Z,21.20
2022-11-14T02:40:34.060Z,19.40
2022-11-14T02:43:00.373Z,20.23
2022-11-14T02:45:27.187Z,19.33
2022-11-14T02:47:53.455Z,20.77
2022-11-14T02:50:19.780Z,20.58
2022-11-14T02:52:45.995Z,20.55
2022-11-14T02:55:12.257Z,19.13
2022-11-14T02:57:38.493Z,20.83
2022-11-14T03:00:08.721Z,19.52
2022-11-14T03:02:38.012Z,19.48
2022-11-14T03:05:04.384Z,20.23
2022-11-14T03:07:30.690Z,19.98
2022-11-14T03:09:56.967Z,19.98
2022-11-14T03:12:23.233Z,19.95
2022-11-14T03:14:49.459Z,18.20
2022-11-14T03:17:15.690Z,20.63
2022-11-14T03:19:41.906Z,18.77
2022-11-14T03:22:08.238Z,18.73
2022-11-14T03:24:34.488Z,18.15
2022-11-14T03:27:00.716Z,18.55
2022-11-14T03:29:26.929Z,18.65
2022-11-14T03:31:53.174Z,18.38
2022-11-14T03:34:19.396Z,17.52
2022-11-14T03:36:45.643Z,17.73
2022-11-14T03:39:11.907Z,17.63
2022-11-14T03:41:38.146Z,18.02
2022-11-14T03:44:04.527Z,18.35
2022-11-14T03:46:30.943Z,18.13
2022-11-14T03:48:57.188Z,18.05
2022-11-14T03:51:23.484Z,16.40
2022-11-14T03:53:49.779Z,16.50
2022-11-14T03:56:16.032Z,16.75
2022-11-14T03:58:42.274Z,16.88
2022-11-14T04:01:08.578Z,17.33
2022-11-14T04:03:34.869Z,19.02
2022-11-14T04:06:01.128Z,17.45
2022-11-14T04:08:27.640Z,18.15
2022-11-14T04:10:54.171Z,16.70
2022-11-14T04:13:20.408Z,17.63
2022-11-14T04:15:46.690Z,19.42
2022-11-14T04:18:12.985Z,17.33
2022-11-14T04:20:39.270Z,18.02
2022-11-14T04:23:05.511Z,17.27
2022-11-14T04:25:31.775Z,17.92
2022-11-14T04:27:58.008Z,18.10
2022-11-14T04:30:24.317Z,18.38
2022-11-14T04:32:50.598Z,18.58
2022-11-14T04:35:16.895Z,19.15
2022-11-14T04:37:43.144Z,19.33
2022-11-14T04:40:09.578Z,18.45
2022-11-14T04:42:35.819Z,18.25
2022-11-14T04:45:02.284Z,19.45
2022-11-14T04:47:28.662Z,18.42
2022-11-14T04:49:54.908Z,18.98
2022-11-14T04:52:21.195Z,19.40
2022-11-14T04:54:47.454Z,17.77
2022-11-14T04:57:13.954Z,18.35
2022-11-14T04:59:40.220Z,19.58
2022-11-14T05:02:06.474Z,18.83
2022-11-14T05:04:32.778Z,19.25
2022-11-14T05:06:59.015Z,20.80
2022-11-14T05:09:25.288Z,19.67
2022-11-14T05:11:51.586Z,20.70
2022-11-14T05:14:17.844Z,19.98
2022-11-14T05:16:44.094Z,20.20
2022-11-14T05:19:10.339Z,20.13
2022-11-14T05:21:36.579Z,20.85
2022-11-14T05:24:02.835Z,20.08
2022-11-14T05:26:29.075Z,21.27
2022-11-14T05:28:55.308Z,19.50
2022-11-14T05:31:21.544Z,20.17
2022-11-14T05:33:48.086Z,20.63
2022-11-14T05:36:15.651Z,19.98
2022-11-14T05:38:42.336Z,18.83
2022-11-14T05:41:10.378Z,20.13
2022-11-14T05:43:36.750Z,18.55
2022-11-14T05:46:03.689Z,19.25
2022-11-14T05:50:57.111Z,17.95
2022-11-14T05:53:23.399Z,19.45
2022-11-14T05:55:49.657Z,17.73
2022-11-14T05:58:15.884Z,19.08
2022-11-14T06:00:50.774Z,17.83
2022-11-14T06:03:19.842Z,19.25
2022-11-14T06:05:46.067Z,17.85
2022-11-14T06:08:13.609Z,21.25
2022-11-14T06:10:39.854Z,19.30
2022-11-14T06:13:06.116Z,18.83
2022-11-14T06:15:32.375Z,19.35
2022-11-14T06:17:58.607Z,17.30
2022-11-14T06:20:24.851Z,18.40
2022-11-14T06:22:54.060Z,16.80
2022-11-14T06:25:20.307Z,16.98
2022-11-14T06:27:46.538Z,15.73
2022-11-14T06:30:13.036Z,16.77
2022-11-14T06:32:39.295Z,15.38
2022-11-14T06:35:06.318Z,16.63
2022-11-14T06:40:00.125Z,16.35
2022-11-14T06:42:26.390Z,16.17
2022-11-14T06:44:52.603Z,17.35
2022-11-14T06:47:18.835Z,16.15
2022-11-14T06:49:45.064Z,16.02
2022-11-14T06:52:11.350Z,16.85
2022-11-14T06:54:37.600Z,16.02
2022-11-14T06:57:03.931Z,16.48
2022-11-14T06:59:30.196Z,14.15
2022-11-14T07:01:56.609Z,15.35
2022-11-14T07:04:22.890Z,15.85
2022-11-14T07:06:49.186Z,15.32
2022-11-14T07:09:15.488Z,15.35
2022-11-14T07:11:42.168Z,15.18
2022-11-14T07:14:08.937Z,16.05
2022-11-14T07:16:35.791Z,13.32
2022-11-14T07:19:02.870Z,15.07
2022-11-14T07:21:30.054Z,15.25
2022-11-14T07:23:56.915Z,15.57
2022-11-14T07:26:23.564Z,14.75
2022-11-14T07:28:53.538Z,15.45
2022-11-14T07:31:21.832Z,15.73
2022-11-14T07:33:48.176Z,16.73
2022-11-14T07:36:15.344Z,16.98
2022-11-14T07:38:41.737Z,16.95
2022-11-14T07:41:12.318Z,16.13
2022-11-14T07:43:38.659Z,14.52
2022-11-14T07:46:10.231Z,14.50
2022-11-14T07:48:36.510Z,14.75
2022-11-14T07:51:03.953Z,13.60
2022-11-14T07:53:30.536Z,13.82
2022-11-14T07:55:57.555Z,14.10
2022-11-14T08:00:50.008Z,13.30
2022-11-14T08:03:16.303Z,13.98
2022-11-14T08:05:42.745Z,14.55
2022-11-14T08:08:09.007Z,15.05
2022-11-14T08:10:35.264Z,14.32
2022-11-14T08:13:31.467Z,14.13
2022-11-14T08:15:49.328Z,14.68
2022-11-14T08:18:15.569Z,14.02
2022-11-14T08:20:41.792Z,12.68
2022-11-14T08:23:08.048Z,14.00
2022-11-14T08:25:34.281Z,12.85
2022-11-14T08:28:00.544Z,14.20
2022-11-14T08:30:26.838Z,14.13
2022-11-14T08:32:53.143Z,19.15
2022-11-14T08:35:19.511Z,17.95
2022-11-14T08:37:45.779Z,14.23
2022-11-14T08:40:12.262Z,15.35
2022-11-14T08:42:38.756Z,14.38
2022-11-14T08:45:05.368Z,14.27
2022-11-14T08:47:31.614Z,15.45
2022-11-14T08:49:57.836Z,16.33
2022-11-14T08:52:24.074Z,14.63
2022-11-14T08:54:50.310Z,13.35
2022-11-14T08:57:16.582Z,13.85
2022-11-14T08:59:42.803Z,14.07
2022-11-14T09:02:13.580Z,13.70
2022-11-14T09:04:40.236Z,11.75
2022-11-14T09:07:06.902Z,12.80
2022-11-14T09:09:33.182Z,12.98
2022-11-14T09:11:59.399Z,13.05
2022-11-14T09:14:25.659Z,13.60
2022-11-14T09:16:51.908Z,13.50
2022-11-14T09:19:18.167Z,13.15
2022-11-14T09:21:44.393Z,12.52
2022-11-14T09:24:10.643Z,12.85
2022-11-14T09:26:36.884Z,13.30
2022-11-14T09:29:03.124Z,14.50
2022-11-14T09:31:29.804Z,12.50
2022-11-14T09:33:56.043Z,12.15
2022-11-14T09:36:23.078Z,14.30
2022-11-14T09:41:15.507Z,12.02
2022-11-14T09:43:44.765Z,13.68
2022-11-14T09:46:16.690Z,11.93
2022-11-14T09:48:43.139Z,12.00
2022-11-14T09:51:14.991Z,11.80
2022-11-14T09:53:57.317Z,12.35
2022-11-14T09:56:27.156Z,11.57
2022-11-14T09:58:55.619Z,12.05
2022-11-14T10:01:46.058Z,12.32
2022-11-14T10:04:15.446Z,11.63
2022-11-14T10:07:00.817Z,11.77
2022-11-14T10:09:35.878Z,11.55
2022-11-14T10:12:09.843Z,11.35
2022-11-14T10:14:51.516Z,12.68
2022-11-14T10:17:29.219Z,10.90
2022-11-14T10:20:07.416Z,17.92
2022-11-14T10:22:36.677Z,12.27
2022-11-14T10:25:02.921Z,14.00
2022-11-14T10:27:32.885Z,11.52
2022-11-14T10:30:01.929Z,10.55
2022-11-14T10:32:28.161Z,11.07
2022-11-14T10:34:58.350Z,12.23
2022-11-14T10:37:31.568Z,11.45
2022-11-14T10:40:02.560Z,11.73
2022-11-14T10:42:32.134Z,10.82
2022-11-14T10:45:11.382Z,12.05
2022-11-14T10:47:40.579Z,10.77
2022-11-14T10:50:19.081Z,13.50
2022-11-14T10:52:45.830Z,11.43
2022-11-14T10:55:16.809Z,17.45
2022-11-14T10:57:44.930Z,17.13
2022-11-14T11:00:12.783Z,13.43
2022-11-14T11:02:47.898Z,12.88
2022-11-14T11:05:15.848Z,12.13
2022-11-14T11:08:28.127Z,12.82
2022-11-14T11:11:15.788Z,16.33
2022-11-14T11:13:50.547Z,11.63
2022-11-14T11:16:19.679Z,41.45
2022-11-14T11:18:50.549Z,51.95
2022-11-14T11:21:18.890Z,16.92
2022-11-14T11:23:49.879Z,12.73
2022-11-14T11:26:18.055Z,14.32
2022-11-14T11:29:00.327Z,13.85
2022-11-14T11:31:26.567Z,13.02
2022-11-14T11:33:52.799Z,13.10
2022-11-14T11:36:20.978Z,11.98
2022-11-14T11:38:47.305Z,15.48
2022-11-14T11:44:17.045Z,12.63
2022-11-14T11:46:48.775Z,11.13
2022-11-14T11:49:41.549Z,11.65
2022-11-14T11:52:12.798Z,14.48
2022-11-14T11:55:02.410Z,11.30
2022-11-14T11:57:31.235Z,12.52
2022-11-14T12:00:06.491Z,11.55
2022-11-14T12:02:33.166Z,10.95
2022-11-14T12:05:00.810Z,10.25
2022-11-14T12:07:59.588Z,10.02
2022-11-14T12:13:10.520Z,11.35
2022-11-14T12:15:48.631Z,10.70
2022-11-14T12:18:14.851Z,11.80
2022-11-14T12:20:52.897Z,13.60
2022-11-14T12:23:25.841Z,13.32
2022-11-14T12:25:58.151Z,11.57
2022-11-14T12:28:36.720Z,13.05
2022-11-14T12:31:04.574Z,12.27
2022-11-14T12:33:53.644Z,13.52
2022-11-14T12:36:26.617Z,12.15
2022-11-14T12:38:53.829Z,45.72
2022-11-14T12:41:22.669Z,28.02
2022-11-14T12:43:48.964Z,16.33
2022-11-14T12:46:15.260Z,21.13
2022-11-14T12:48:42.594Z,11.95
2022-11-14T12:51:23.965Z,10.43
2022-11-14T12:53:50.244Z,11.00
2022-11-14T12:56:22.660Z,11.23
2022-11-14T12:58:51.891Z,10.73
2022-11-14T13:01:28.081Z,9.43
2022-11-14T13:04:12.446Z,10.80
2022-11-14T13:06:41.753Z,10.35
2022-11-14T13:09:28.011Z,10.02
2022-11-14T13:12:12.918Z,10.00
2022-11-14T13:15:11.043Z,10.80
2022-11-14T13:17:55.798Z,9.52
2022-11-14T13:20:40.564Z,10.63
2022-11-14T13:23:25.029Z,10.63
2022-11-14T13:26:09.843Z,10.20
2022-11-14T13:28:36.054Z,10.57
2022-11-14T13:31:21.146Z,10.52
2022-11-14T13:33:52.053Z,10.70
2022-11-14T13:36:21.352Z,11.55
2022-11-14T13:39:02.402Z,13.30
2022-11-14T13:41:48.217Z,10.93
2022-11-14T13:44:32.951Z,11.82
2022-11-14T13:47:11.567Z,12.10
2022-11-14T13:49:52.421Z,13.02
2022-11-14T13:52:18.852Z,13.43
2022-11-14T13:54:49.019Z,12.25
2022-11-14T13:57:24.583Z,11.48
2022-11-14T13:59:56.691Z,11.32
2022-11-14T14:02:25.954Z,11.30
2022-11-14T14:05:11.114Z,11.02
2022-11-14T14:07:52.740Z,11.80
2022-11-14T14:10:37.274Z,10.90
2022-11-14T14:13:36.206Z,11.15
2022-11-14T14:16:09.607Z,10.90
2022-11-14T14:18:35.812Z,10.35
2022-11-14T14:21:16.486Z,10.23
2022-11-14T14:23:48.875Z,9.90
2022-11-14T14:26:33.568Z,9.60
2022-11-14T14:29:03.623Z,9.75
2022-11-14T14:31:39.243Z,10.45
2022-11-14T14:34:20.564Z,9.75
2022-11-14T14:36:50.857Z,8.70
2022-11-14T14:39:18.748Z,9.85
2022-11-14T14:41:45.588Z,10.02
2022-11-14T14:44:19.119Z,11.38
2022-11-14T14:46:45.386Z,11.20
2022-11-14T14:49:11.624Z,10.88
2022-11-14T14:51:42.799Z,12.18
2022-11-14T14:54:18.532Z,14.50
2022-11-14T14:56:55.314Z,17.48
2022-11-14T14:59:25.288Z,25.63
2022-11-14T15:01:51.737Z,13.73
2022-11-14T15:04:18.927Z,11.07
2022-11-14T15:06:46.401Z,11.10
2022-11-14T15:09:18.775Z,10.63
2022-11-14T15:11:46.155Z,11.20
2022-11-14T15:14:13.711Z,9.95
2022-11-14T15:16:40.024Z,11.50
2022-11-14T15:19:06.316Z,12.55
2022-11-14T15:21:32.542Z,11.85
2022-11-14T15:24:13.187Z,12.48
2022-11-14T15:26:39.739Z,11.45
2022-11-14T15:29:18.503Z,11.20
2022-11-14T15:31:49.256Z,12.48
2022-11-14T15:34:21.580Z,13.23
2022-11-14T15:37:06.163Z,12.88
2022-11-14T15:39:32.411Z,11.90
2022-11-14T15:42:17.606Z,11.85
2022-11-14T15:44:43.921Z,11.13
2022-11-14T15:47:12.343Z,11.95
2022-11-14T15:49:38.740Z,11.85
2022-11-14T15:52:05.868Z,10.38
2022-11-14T15:54:33.000Z,10.18
2022-11-14T15:57:00.373Z,11.15
2022-11-14T15:59:27.494Z,9.85
2022-11-14T16:01:56.326Z,11.68
2022-11-14T16:04:24.955Z,11.43
2022-11-14T16:06:51.257Z,10.45
2022-11-14T16:09:18.801Z,10.20
2022-11-14T16:11:45.083Z,11.30
2022-11-14T16:14:11.610Z,10.55
2022-11-14T16:16:37.890Z,10.68
2022-11-14T16:19:04.122Z,10.38
2022-11-14T16:21:30.375Z,10.93
2022-11-14T16:23:57.811Z,9.88
2022-11-14T16:26:26.245Z,11.45
2022-11-14T16:28:52.949Z,12.27
2022-11-14T16:31:19.345Z,11.32
2022-11-14T16:33:45.595Z,11.90
2022-11-14T16:36:12.146Z,11.13
2022-11-14T16:38:38.477Z,10.60
2022-11-14T16:41:08.531Z,11.25
2022-11-14T16:43:34.819Z,11.50
2022-11-14T16:46:04.968Z,11.15
2022-11-14T16:48:31.194Z,11.23
2022-11-14T16:51:14.931Z,11.13
2022-11-14T16:53:54.005Z,10.80
2022-11-14T16:56:20.230Z,12.18
2022-11-14T16:58:46.536Z,13.30
2022-11-14T17:01:18.730Z,15.98
2022-11-14T17:03:47.390Z,16.52
2022-11-14T17:06:13.624Z,17.02
2022-11-14T17:08:39.826Z,15.13
2022-11-14T17:11:09.999Z,13.20
2022-11-14T17:13:37.019Z,15.90
2022-11-14T17:18:33.976Z,21.48
2022-11-14T17:21:07.752Z,35.30
2022-11-14T17:23:34.028Z,33.28
2022-11-14T17:26:07.255Z,25.05
2022-11-14T17:28:33.981Z,19.42
2022-11-14T17:31:00.470Z,20.38
2022-11-14T17:33:26.703Z,14.45
2022-11-14T17:35:52.944Z,12.45
2022-11-14T17:38:19.212Z,11.65
2022-11-14T17:40:45.964Z,12.10
2022-11-14T17:43:14.172Z,12.68
2022-11-14T17:45:41.350Z,12.35
2022-11-14T17:48:07.746Z,13.60
2022-11-14T17:50:37.984Z,12.50
2022-11-14T17:53:04.254Z,12.25
2022-11-14T17:55:30.506Z,14.65
2022-11-14T17:57:56.817Z,11.07
2022-11-14T18:00:23.073Z,11.27
2022-11-14T18:02:49.379Z,13.40
2022-11-14T18:05:15.752Z,11.05
2022-11-14T18:07:41.999Z,12.10
2022-11-14T18:10:08.470Z,15.35
2022-11-14T18:12:34.778Z,16.42
2022-11-14T18:15:01.023Z,20.60
2022-11-14T18:17:27.606Z,17.73
2022-11-14T18:19:56.102Z,25.55
2022-11-14T18:22:22.349Z,18.52
2022-11-14T18:24:48.619Z,12.57
2022-11-14T18:27:14.907Z,12.00
2022-11-14T18:29:41.148Z,10.80
2022-11-14T18:32:07.383Z,11.77
2022-11-14T18:34:36.683Z,10.70
2022-11-14T18:37:03.574Z,12.38
2022-11-14T18:39:30.613Z,12.20
2022-11-14T18:44:24.733Z,11.38
2022-11-14T18:46:50.975Z,11.55
2022-11-14T18:49:17.208Z,11.65
2022-11-14T18:51:43.592Z,11.00
2022-11-14T18:54:11.009Z,11.93
2022-11-14T18:56:37.263Z,9.70
2022-11-14T18:59:03.752Z,10.98
2022-11-14T19:01:31.991Z,11.50
2022-11-14T19:03:59.386Z,10.55
2022-11-14T19:06:26.298Z,10.38
2022-11-14T19:11:37.239Z,8.85
2022-11-14T19:14:04.966Z,9.07
2022-11-14T19:16:32.158Z,9.65
2022-11-14T19:18:58.925Z,10.05
2022-11-14T19:21:25.605Z,9.65
2022-11-14T19:23:52.042Z,9.38
2022-11-14T19:26:18.297Z,11.02
2022-11-14T19:28:44.525Z,10.75
2022-11-14T19:31:10.943Z,13.82
2022-11-14T19:33:39.421Z,14.15
2022-11-14T19:36:06.586Z,13.30
2022-11-14T19:38:33.162Z,13.18
2022-11-14T19:41:05.389Z,13.85
2022-11-14T19:43:31.844Z,14.70
2022-11-14T19:46:02.356Z,16.40
2022-11-14T19:48:28.659Z,17.95
2022-11-14T19:51:09.432Z,20.13
2022-11-14T19:53:36.406Z,19.63
2022-11-14T19:58:28.962Z,12.75
2022-11-14T20:01:02.304Z,13.60
2022-11-14T20:03:29.025Z,14.57
2022-11-14T20:08:21.976Z,72.40
2022-11-14T20:10:54.502Z,18.60
2022-11-14T20:13:20.941Z,16.50
2022-11-14T20:15:47.188Z,16.77
2022-11-14T20:18:13.488Z,14.45
2022-11-14T20:20:39.740Z,13.25
2022-11-14T20:23:06.347Z,12.70
2022-11-14T20:25:34.735Z,13.00
2022-11-14T20:28:01.468Z,13.15
2022-11-14T20:30:28.188Z,13.27
2022-11-14T20:32:54.533Z,14.48
2022-11-14T20:35:20.746Z,17.20
2022-11-14T20:37:47.536Z,17.95
2022-11-14T20:40:13.764Z,15.07
2022-11-14T20:42:40.000Z,16.52
2022-11-14T20:45:06.384Z,15.05
2022-11-14T20:47:32.619Z,15.93
2022-11-14T20:49:58.896Z,15.65
2022-11-14T20:52:25.125Z,14.25
2022-11-14T20:54:51.354Z,15.07
2022-11-14T20:57:17.569Z,14.90
2022-11-14T20:59:43.888Z,13.68
2022-11-14T21:02:11.452Z,13.98
2022-11-14T21:04:37.759Z,13.68
2022-11-14T21:07:04.028Z,14.40
2022-11-14T21:09:30.407Z,13.93
2022-11-14T21:11:56.745Z,14.02
2022-11-14T21:14:23.016Z,14.60
2022-11-14T21:16:49.262Z,15.63
2022-11-14T21:19:15.545Z,15.57
2022-11-14T21:21:41.797Z,15.68
2022-11-14T21:24:08.060Z,15.82
2022-11-14T21:26:36.935Z,14.73
2022-11-14T21:29:08.192Z,15.07
2022-11-14T21:31:38.596Z,14.50
2022-11-14T21:34:09.997Z,16.27
2022-11-14T21:36:45.399Z,14.90
2022-11-14T21:39:14.674Z,14.43
2022-11-14T21:41:42.087Z,15.48
2022-11-14T21:44:09.784Z,16.60
2022-11-14T21:46:36.004Z,15.82
2022-11-14T21:49:02.314Z,17.80
2022-11-14T21:51:28.885Z,17.35
2022-11-14T21:53:58.515Z,16.42
2022-11-14T21:56:25.738Z,16.27
2022-11-14T21:59:12.173Z,14.95
2022-11-14T22:01:57.889Z,13.98
2022-11-14T22:04:24.535Z,14.02
2022-11-14T22:06:50.822Z,15.43
2022-11-14T22:09:17.105Z,14.85
2022-11-14T22:11:43.329Z,13.55
2022-11-14T22:14:09.585Z,13.80
2022-11-14T22:16:35.821Z,14.88
2022-11-14T22:19:05.260Z,14.60
2022-11-14T22:21:31.670Z,15.20
2022-11-14T22:23:57.940Z,16.30
2022-11-14T22:26:24.344Z,15.70
2022-11-14T22:28:50.630Z,14.80
2022-11-14T22:31:18.991Z,14.60
2022-11-14T22:33:46.928Z,15.40
2022-11-14T22:36:14.858Z,14.55
2022-11-14T22:38:41.678Z,14.57
2022-11-14T22:41:11.002Z,14.20
2022-11-14T22:43:37.222Z,14.18
2022-11-14T22:46:03.724Z,13.63
2022-11-14T22:48:31.981Z,13.20
2022-11-14T22:50:58.819Z,13.60
2022-11-14T22:53:25.172Z,13.00
2022-11-14T22:55:51.420Z,12.77
2022-11-14T22:58:17.647Z,12.18
2022-11-14T23:00:43.904Z,12.38
2022-11-14T23:03:10.228Z,13.05
2022-11-14T23:05:36.842Z,12.05
2022-11-14T23:08:04.055Z,11.60
2022-11-14T23:10:30.551Z,11.55
2022-11-14T23:12:56.788Z,12.35
2022-11-14T23:15:23.011Z,13.20
2022-11-14T23:17:49.244Z,11.27
2022-11-14T23:20:16.831Z,12.02
2022-11-14T23:22:43.170Z,11.85
2022-11-14T23:25:09.685Z,13.10
2022-11-14T23:27:36.032Z,11.52
2022-11-14T23:30:02.324Z,12.20
2022-11-14T23:32:29.032Z,11.60
2022-11-14T23:34:55.363Z,12.48
2022-11-14T23:37:21.603Z,12.68
2022-11-14T23:39:47.867Z,12.45
2022-11-14T23:42:14.083Z,11.93
2022-11-14T23:44:40.306Z,12.50
2022-11-14T23:47:06.531Z,11.18
2022-11-14T23:49:32.787Z,12.15
2022-11-14T23:51:59.035Z,11.70
2022-11-14T23:54:25.312Z,13.13
2022-11-14T23:56:51.567Z,14.45
2022-11-14T23:59:17.787Z,12.77
